Main page
METAR-TAF:

METAR-TAF

Airports :

Luanda, Angola

Quatro de Fevereiro Airport

latitude: 08-51S, longitude: 013-14E, elevation: 74 m

Current weather observation

The report was made 1 hour and 3 minutes ago, at 11:00 UTC
Wind 4 kt from the East
Temperature 26°C
Humidity 61%
Pressure 1014 hPa
Visibility: 8000 m
Broken clouds at a height of 2200 ft

METAR: FNLU 261100Z 08004KT 8000 BKN022 26/18 Q1014

Time: 13:03 (12:03 UTC)


TAF: missing

Weather observations and forecasts of more than 4000 airports (METAR and TAF reports).

The available stations are represented by yellow and red dots on the map.

Hover mouse over dot to see the name of the station.

Then click to see weather observations and forecasts.

To change the map : click on the green buttons with a black cross to zoom in, on the green button with a dash to zoom out, or on the green arrows for adjacent maps.


METAR-TAF: